sensor_id;sensor_type;location;lat;lon;timestamp;temperature;humidity
4896;DHT22;2463;49.948;8.472;2022-11-15T00:00:56;9.40;99.90
4896;DHT22;2463;49.948;8.472;2022-11-15T00:03:25;9.40;99.90
4896;DHT22;2463;49.948;8.472;2022-11-15T00:05:53;9.40;99.90
4896;DHT22;2463;49.948;8.472;2022-11-15T00:08:20;9.40;99.90
4896;DHT22;2463;49.948;8.472;2022-11-15T00:10:57;9.50;99.90
4896;DHT22;2463;49.948;8.472;2022-11-15T00:13:24;9.50;99.90
4896;DHT22;2463;49.948;8.472;2022-11-15T00:15:51;9.50;99.90
4896;DHT22;2463;49.948;8.472;2022-11-15T00:18:18;9.60;99.90
4896;DHT22;2463;49.948;8.472;2022-11-15T00:20:45;9.60;99.90
4896;DHT22;2463;49.948;8.472;2022-11-15T00:23:12;9.70;99.90
4896;DHT22;2463;49.948;8.472;2022-11-15T00:25:39;9.70;99.90
4896;DHT22;2463;49.948;8.472;2022-11-15T00:28:05;9.70;99.90
4896;DHT22;2463;49.948;8.472;2022-11-15T00:30:32;9.80;99.90
4896;DHT22;2463;49.948;8.472;2022-11-15T00:33:03;9.80;99.90
4896;DHT22;2463;49.948;8.472;2022-11-15T00:35:32;9.80;99.90
4896;DHT22;2463;49.948;8.472;2022-11-15T00:38:00;9.80;99.90
4896;DHT22;2463;49.948;8.472;2022-11-15T00:40:27;9.90;99.90
4896;DHT22;2463;49.948;8.472;2022-11-15T00:42:54;9.90;99.90
4896;DHT22;2463;49.948;8.472;2022-11-15T00:45:20;9.90;99.90
4896;DHT22;2463;49.948;8.472;2022-11-15T00:47:47;10.00;99.90
4896;DHT22;2463;49.948;8.472;2022-11-15T00:50:14;10.00;99.90
4896;DHT22;2463;49.948;8.472;2022-11-15T00:52:41;10.00;99.90
4896;DHT22;2463;49.948;8.472;2022-11-15T00:55:13;10.10;99.90
4896;DHT22;2463;49.948;8.472;2022-11-15T00:57:41;10.10;99.90
4896;DHT22;2463;49.948;8.472;2022-11-15T01:00:08;10.10;99.90
4896;DHT22;2463;49.948;8.472;2022-11-15T01:02:34;10.10;99.90
4896;DHT22;2463;49.948;8.472;2022-11-15T01:05:01;10.10;99.90
4896;DHT22;2463;49.948;8.472;2022-11-15T01:07:28;10.10;99.90
4896;DHT22;2463;49.948;8.472;2022-11-15T01:09:55;10.10;99.90
4896;DHT22;2463;49.948;8.472;2022-11-15T01:12:21;10.10;99.90
4896;DHT22;2463;49.948;8.472;2022-11-15T01:14:49;10.10;99.90
4896;DHT22;2463;49.948;8.472;2022-11-15T01:17:16;10.10;99.90
4896;DHT22;2463;49.948;8.472;2022-11-15T01:19:42;10.00;99.90
4896;DHT22;2463;49.948;8.472;2022-11-15T01:22:09;10.00;99.90
4896;DHT22;2463;49.948;8.472;2022-11-15T01:24:36;10.00;99.90
4896;DHT22;2463;49.948;8.472;2022-11-15T01:27:02;10.00;99.90
4896;DHT22;2463;49.948;8.472;2022-11-15T01:29:29;10.10;99.90
4896;DHT22;2463;49.948;8.472;2022-11-15T01:31:56;10.10;99.90
4896;DHT22;2463;49.948;8.472;2022-11-15T01:34:22;10.10;99.90
4896;DHT22;2463;49.948;8.472;2022-11-15T01:36:49;10.10;99.90
4896;DHT22;2463;49.948;8.472;2022-11-15T01:39:16;10.10;99.90
4896;DHT22;2463;49.948;8.472;2022-11-15T01:41:43;10.10;99.90
4896;DHT22;2463;49.948;8.472;2022-11-15T01:44:42;10.10;99.90
4896;DHT22;2463;49.948;8.472;2022-11-15T01:47:26;10.10;99.90
4896;DHT22;2463;49.948;8.472;2022-11-15T01:50:16;10.10;99.90
4896;DHT22;2463;49.948;8.472;2022-11-15T01:52:43;10.10;99.90
4896;DHT22;2463;49.948;8.472;2022-11-15T01:55:20;10.10;99.90
4896;DHT22;2463;49.948;8.472;2022-11-15T01:57:50;10.10;99.90
4896;DHT22;2463;49.948;8.472;2022-11-15T02:00:17;10.10;99.90
4896;DHT22;2463;49.948;8.472;2022-11-15T02:02:44;10.10;99.90
4896;DHT22;2463;49.948;8.472;2022-11-15T02:05:11;10.10;99.90
4896;DHT22;2463;49.948;8.472;2022-11-15T02:07:38;10.20;99.90
4896;DHT22;2463;49.948;8.472;2022-11-15T02:10:11;10.10;99.90
4896;DHT22;2463;49.948;8.472;2022-11-15T02:12:39;10.10;99.90
4896;DHT22;2463;49.948;8.472;2022-11-15T02:15:07;10.00;99.90
4896;DHT22;2463;49.948;8.472;2022-11-15T02:17:48;10.00;99.90
4896;DHT22;2463;49.948;8.472;2022-11-15T02:23:04;10.10;99.90
4896;DHT22;2463;49.948;8.472;2022-11-15T02:26:09;10.10;99.90
4896;DHT22;2463;49.948;8.472;2022-11-15T02:29:06;10.10;99.90
4896;DHT22;2463;49.948;8.472;2022-11-15T02:40:01;10.10;99.90
4896;DHT22;2463;49.948;8.472;2022-11-15T02:42:35;10.10;99.90
4896;DHT22;2463;49.948;8.472;2022-11-15T02:45:28;10.00;99.90
4896;DHT22;2463;49.948;8.472;2022-11-15T02:47:58;10.00;99.90
4896;DHT22;2463;49.948;8.472;2022-11-15T02:50:28;9.90;99.90
4896;DHT22;2463;49.948;8.472;2022-11-15T02:52:55;9.90;99.90
4896;DHT22;2463;49.948;8.472;2022-11-15T02:55:33;9.90;99.90
4896;DHT22;2463;49.948;8.472;2022-11-15T03:01:00;9.90;99.90
4896;DHT22;2463;49.948;8.472;2022-11-15T03:07:02;9.90;99.90
4896;DHT22;2463;49.948;8.472;2022-11-15T03:09:57;10.10;99.90
4896;DHT22;2463;49.948;8.472;2022-11-15T03:12:38;10.20;99.90
4896;DHT22;2463;49.948;8.472;2022-11-15T03:15:36;10.30;99.90
4896;DHT22;2463;49.948;8.472;2022-11-15T03:18:19;10.40;99.90
4896;DHT22;2463;49.948;8.472;2022-11-15T03:20:48;10.40;99.90
4896;DHT22;2463;49.948;8.472;2022-11-15T03:23:17;10.50;99.90
4896;DHT22;2463;49.948;8.472;2022-11-15T03:25:47;10.50;99.90
4896;DHT22;2463;49.948;8.472;2022-11-15T03:28:27;10.60;99.90
4896;DHT22;2463;49.948;8.472;2022-11-15T03:30:56;10.60;99.90
4896;DHT22;2463;49.948;8.472;2022-11-15T03:33:25;10.60;99.90
4896;DHT22;2463;49.948;8.472;2022-11-15T03:35:52;10.70;99.90
4896;DHT22;2463;49.948;8.472;2022-11-15T03:38:24;10.70;99.90
4896;DHT22;2463;49.948;8.472;2022-11-15T03:40:58;10.70;99.90
4896;DHT22;2463;49.948;8.472;2022-11-15T03:43:30;10.70;99.90
4896;DHT22;2463;49.948;8.472;2022-11-15T03:46:07;10.80;99.90
4896;DHT22;2463;49.948;8.472;2022-11-15T03:48:39;10.80;99.90
4896;DHT22;2463;49.948;8.472;2022-11-15T03:51:08;10.80;99.90
4896;DHT22;2463;49.948;8.472;2022-11-15T03:53:35;10.80;99.90
4896;DHT22;2463;49.948;8.472;2022-11-15T03:56:02;10.80;99.90
4896;DHT22;2463;49.948;8.472;2022-11-15T03:58:28;10.90;99.90
4896;DHT22;2463;49.948;8.472;2022-11-15T04:00:55;10.90;99.90
4896;DHT22;2463;49.948;8.472;2022-11-15T04:03:21;10.90;99.90
4896;DHT22;2463;49.948;8.472;2022-11-15T04:05:48;10.90;99.90
4896;DHT22;2463;49.948;8.472;2022-11-15T04:08:15;10.90;99.90
4896;DHT22;2463;49.948;8.472;2022-11-15T04:10:41;11.00;99.90
4896;DHT22;2463;49.948;8.472;2022-11-15T04:13:08;10.90;99.90
4896;DHT22;2463;49.948;8.472;2022-11-15T04:15:35;10.90;99.90
4896;DHT22;2463;49.948;8.472;2022-11-15T04:18:02;11.00;99.90
4896;DHT22;2463;49.948;8.472;2022-11-15T04:20:31;10.90;99.90
4896;DHT22;2463;49.948;8.472;2022-11-15T04:23:19;11.00;99.90
4896;DHT22;2463;49.948;8.472;2022-11-15T04:26:06;10.90;99.90
4896;DHT22;2463;49.948;8.472;2022-11-15T04:28:34;10.90;99.90
4896;DHT22;2463;49.948;8.472;2022-11-15T04:31:01;10.90;99.90
4896;DHT22;2463;49.948;8.472;2022-11-15T04:33:27;10.90;99.90
4896;DHT22;2463;49.948;8.472;2022-11-15T04:35:55;10.90;99.90
4896;DHT22;2463;49.948;8.472;2022-11-15T04:38:40;10.90;99.90
4896;DHT22;2463;49.948;8.472;2022-11-15T04:41:07;10.90;99.90
4896;DHT22;2463;49.948;8.472;2022-11-15T04:43:33;10.90;99.90
4896;DHT22;2463;49.948;8.472;2022-11-15T04:46:00;10.90;99.90
4896;DHT22;2463;49.948;8.472;2022-11-15T04:48:27;11.00;99.90
4896;DHT22;2463;49.948;8.472;2022-11-15T04:50:54;11.00;99.90
4896;DHT22;2463;49.948;8.472;2022-11-15T04:53:20;11.00;99.90
4896;DHT22;2463;49.948;8.472;2022-11-15T04:55:47;10.90;99.90
4896;DHT22;2463;49.948;8.472;2022-11-15T04:58:14;11.00;99.90
4896;DHT22;2463;49.948;8.472;2022-11-15T05:00:40;11.00;99.90
4896;DHT22;2463;49.948;8.472;2022-11-15T05:03:09;11.00;99.90
4896;DHT22;2463;49.948;8.472;2022-11-15T05:05:55;10.90;99.90
4896;DHT22;2463;49.948;8.472;2022-11-15T05:08:21;11.00;99.90
4896;DHT22;2463;49.948;8.472;2022-11-15T05:10:48;11.00;99.90
4896;DHT22;2463;49.948;8.472;2022-11-15T05:13:14;11.10;99.90
4896;DHT22;2463;49.948;8.472;2022-11-15T05:15:41;11.10;99.90
4896;DHT22;2463;49.948;8.472;2022-11-15T05:18:08;11.10;99.90
4896;DHT22;2463;49.948;8.472;2022-11-15T05:20:35;11.10;99.90
4896;DHT22;2463;49.948;8.472;2022-11-15T05:23:01;11.10;99.90
4896;DHT22;2463;49.948;8.472;2022-11-15T05:25:28;11.20;99.90
4896;DHT22;2463;49.948;8.472;2022-11-15T05:27:55;11.20;99.90
4896;DHT22;2463;49.948;8.472;2022-11-15T05:30:21;11.20;99.90
4896;DHT22;2463;49.948;8.472;2022-11-15T05:32:48;11.20;99.90
4896;DHT22;2463;49.948;8.472;2022-11-15T05:35:25;11.20;99.90
4896;DHT22;2463;49.948;8.472;2022-11-15T05:37:53;11.30;99.90
4896;DHT22;2463;49.948;8.472;2022-11-15T05:40:20;11.30;99.90
4896;DHT22;2463;49.948;8.472;2022-11-15T05:42:47;11.30;99.90
4896;DHT22;2463;49.948;8.472;2022-11-15T05:45:14;11.40;99.90
4896;DHT22;2463;49.948;8.472;2022-11-15T05:47:41;11.30;99.90
4896;DHT22;2463;49.948;8.472;2022-11-15T05:50:12;11.30;99.90
4896;DHT22;2463;49.948;8.472;2022-11-15T05:52:39;11.30;99.90
4896;DHT22;2463;49.948;8.472;2022-11-15T05:55:07;11.30;99.90
4896;DHT22;2463;49.948;8.472;2022-11-15T05:57:34;11.20;99.90
4896;DHT22;2463;49.948;8.472;2022-11-15T06:00:03;11.10;99.90
4896;DHT22;2463;49.948;8.472;2022-11-15T06:02:30;11.10;99.90
4896;DHT22;2463;49.948;8.472;2022-11-15T06:04:57;11.20;99.90
4896;DHT22;2463;49.948;8.472;2022-11-15T06:07:23;11.20;99.90
4896;DHT22;2463;49.948;8.472;2022-11-15T06:09:50;11.20;99.90
4896;DHT22;2463;49.948;8.472;2022-11-15T06:12:17;11.20;99.90
4896;DHT22;2463;49.948;8.472;2022-11-15T06:14:43;11.20;99.90
4896;DHT22;2463;49.948;8.472;2022-11-15T06:17:10;11.30;99.90
4896;DHT22;2463;49.948;8.472;2022-11-15T06:19:37;11.30;99.90
4896;DHT22;2463;49.948;8.472;2022-11-15T06:22:03;11.40;99.90
4896;DHT22;2463;49.948;8.472;2022-11-15T06:24:30;11.40;99.90
4896;DHT22;2463;49.948;8.472;2022-11-15T06:26:57;11.50;99.90
4896;DHT22;2463;49.948;8.472;2022-11-15T06:29:24;11.50;99.90
4896;DHT22;2463;49.948;8.472;2022-11-15T06:31:51;11.40;99.90
4896;DHT22;2463;49.948;8.472;2022-11-15T06:34:17;11.40;99.90
4896;DHT22;2463;49.948;8.472;2022-11-15T06:36:44;11.40;99.90
4896;DHT22;2463;49.948;8.472;2022-11-15T06:39:11;11.40;99.90
4896;DHT22;2463;49.948;8.472;2022-11-15T06:41:38;11.40;99.90
4896;DHT22;2463;49.948;8.472;2022-11-15T06:44:04;11.50;99.90
4896;DHT22;2463;49.948;8.472;2022-11-15T06:46:31;11.50;99.90
4896;DHT22;2463;49.948;8.472;2022-11-15T06:48:57;11.60;99.90
4896;DHT22;2463;49.948;8.472;2022-11-15T06:51:24;11.60;99.90
4896;DHT22;2463;49.948;8.472;2022-11-15T06:53:51;11.60;99.90
4896;DHT22;2463;49.948;8.472;2022-11-15T06:56:17;11.60;99.90
4896;DHT22;2463;49.948;8.472;2022-11-15T06:58:45;11.60;99.90
4896;DHT22;2463;49.948;8.472;2022-11-15T07:01:12;11.60;99.90
4896;DHT22;2463;49.948;8.472;2022-11-15T07:03:41;11.60;99.90
4896;DHT22;2463;49.948;8.472;2022-11-15T07:06:09;11.60;99.90
4896;DHT22;2463;49.948;8.472;2022-11-15T07:08:36;11.60;99.90
4896;DHT22;2463;49.948;8.472;2022-11-15T07:11:05;11.60;99.90
4896;DHT22;2463;49.948;8.472;2022-11-15T07:13:33;11.70;99.90
4896;DHT22;2463;49.948;8.472;2022-11-15T07:16:06;11.70;99.90
4896;DHT22;2463;49.948;8.472;2022-11-15T07:18:35;11.80;99.90
4896;DHT22;2463;49.948;8.472;2022-11-15T07:21:03;11.80;99.90
4896;DHT22;2463;49.948;8.472;2022-11-15T07:23:30;11.80;99.90
4896;DHT22;2463;49.948;8.472;2022-11-15T07:25:58;11.90;99.90
4896;DHT22;2463;49.948;8.472;2022-11-15T07:28:26;11.90;99.90
4896;DHT22;2463;49.948;8.472;2022-11-15T07:30:53;12.00;99.90
4896;DHT22;2463;49.948;8.472;2022-11-15T07:33:20;12.00;99.90
4896;DHT22;2463;49.948;8.472;2022-11-15T07:35:47;12.00;99.90
4896;DHT22;2463;49.948;8.472;2022-11-15T07:38:17;12.10;99.90
4896;DHT22;2463;49.948;8.472;2022-11-15T07:40:47;12.10;99.90
4896;DHT22;2463;49.948;8.472;2022-11-15T07:43:21;12.20;99.90
4896;DHT22;2463;49.948;8.472;2022-11-15T07:45:48;12.30;99.90
4896;DHT22;2463;49.948;8.472;2022-11-15T07:48:17;12.30;99.90
4896;DHT22;2463;49.948;8.472;2022-11-15T07:50:44;12.30;99.90
4896;DHT22;2463;49.948;8.472;2022-11-15T07:53:11;12.40;99.90
4896;DHT22;2463;49.948;8.472;2022-11-15T07:55:40;12.40;99.90
4896;DHT22;2463;49.948;8.472;2022-11-15T07:58:09;12.40;99.90
4896;DHT22;2463;49.948;8.472;2022-11-15T08:00:37;12.40;99.90
4896;DHT22;2463;49.948;8.472;2022-11-15T08:03:06;12.50;99.90
4896;DHT22;2463;49.948;8.472;2022-11-15T08:05:34;12.40;99.90
4896;DHT22;2463;49.948;8.472;2022-11-15T08:08:01;12.30;99.90
4896;DHT22;2463;49.948;8.472;2022-11-15T08:10:28;12.40;99.90
4896;DHT22;2463;49.948;8.472;2022-11-15T08:13:04;12.40;99.90
4896;DHT22;2463;49.948;8.472;2022-11-15T08:15:31;12.50;99.90
4896;DHT22;2463;49.948;8.472;2022-11-15T08:18:00;12.50;99.90
4896;DHT22;2463;49.948;8.472;2022-11-15T08:20:28;12.70;99.90
4896;DHT22;2463;49.948;8.472;2022-11-15T08:23:00;12.70;99.90
4896;DHT22;2463;49.948;8.472;2022-11-15T08:25:28;12.80;99.90
4896;DHT22;2463;49.948;8.472;2022-11-15T08:28:00;12.80;99.90
4896;DHT22;2463;49.948;8.472;2022-11-15T08:30:27;12.80;99.90
4896;DHT22;2463;49.948;8.472;2022-11-15T08:32:57;12.80;99.90
4896;DHT22;2463;49.948;8.472;2022-11-15T08:35:24;12.70;99.90
4896;DHT22;2463;49.948;8.472;2022-11-15T08:37:55;12.70;99.90
4896;DHT22;2463;49.948;8.472;2022-11-15T08:40:21;12.70;99.90
4896;DHT22;2463;49.948;8.472;2022-11-15T08:42:49;12.70;99.90
4896;DHT22;2463;49.948;8.472;2022-11-15T08:45:16;12.70;99.90
4896;DHT22;2463;49.948;8.472;2022-11-15T08:47:44;12.80;99.90
4896;DHT22;2463;49.948;8.472;2022-11-15T08:50:18;12.80;99.90
4896;DHT22;2463;49.948;8.472;2022-11-15T08:52:45;12.90;99.90
4896;DHT22;2463;49.948;8.472;2022-11-15T08:55:12;13.00;99.90
4896;DHT22;2463;49.948;8.472;2022-11-15T08:57:38;13.20;99.90
4896;DHT22;2463;49.948;8.472;2022-11-15T09:00:05;13.20;99.90
4896;DHT22;2463;49.948;8.472;2022-11-15T09:02:32;13.30;99.90
4896;DHT22;2463;49.948;8.472;2022-11-15T09:04:59;13.30;99.90
4896;DHT22;2463;49.948;8.472;2022-11-15T09:07:25;13.30;99.90
4896;DHT22;2463;49.948;8.472;2022-11-15T09:09:52;13.30;99.90
4896;DHT22;2463;49.948;8.472;2022-11-15T09:12:19;13.40;99.90
4896;DHT22;2463;49.948;8.472;2022-11-15T09:14:45;13.30;99.90
4896;DHT22;2463;49.948;8.472;2022-11-15T09:17:12;13.40;99.90
4896;DHT22;2463;49.948;8.472;2022-11-15T09:19:39;13.40;99.90
4896;DHT22;2463;49.948;8.472;2022-11-15T09:22:07;13.40;99.90
4896;DHT22;2463;49.948;8.472;2022-11-15T09:24:34;13.40;99.90
4896;DHT22;2463;49.948;8.472;2022-11-15T09:27:02;13.50;99.90
4896;DHT22;2463;49.948;8.472;2022-11-15T09:29:29;13.60;99.90
4896;DHT22;2463;49.948;8.472;2022-11-15T09:31:55;13.90;99.90
4896;DHT22;2463;49.948;8.472;2022-11-15T09:34:22;14.60;99.90
4896;DHT22;2463;49.948;8.472;2022-11-15T09:36:49;15.10;99.90
4896;DHT22;2463;49.948;8.472;2022-11-15T09:39:15;15.30;99.90
4896;DHT22;2463;49.948;8.472;2022-11-15T09:44:43;15.50;99.90
4896;DHT22;2463;49.948;8.472;2022-11-15T09:49:44;15.70;99.90
4896;DHT22;2463;49.948;8.472;2022-11-15T09:52:11;15.80;99.90
4896;DHT22;2463;49.948;8.472;2022-11-15T09:54:39;15.80;99.90
4896;DHT22;2463;49.948;8.472;2022-11-15T10:00:20;15.70;99.90
4896;DHT22;2463;49.948;8.472;2022-11-15T10:03:14;15.70;99.90
4896;DHT22;2463;49.948;8.472;2022-11-15T10:05:55;15.60;99.90
4896;DHT22;2463;49.948;8.472;2022-11-15T10:08:54;15.60;99.90
4896;DHT22;2463;49.948;8.472;2022-11-15T10:11:32;15.30;99.90
4896;DHT22;2463;49.948;8.472;2022-11-15T10:14:23;15.20;99.90
4896;DHT22;2463;49.948;8.472;2022-11-15T10:17:32;14.90;99.90
4896;DHT22;2463;49.948;8.472;2022-11-15T10:20:23;14.70;99.90
4896;DHT22;2463;49.948;8.472;2022-11-15T10:22:52;14.50;99.90
4896;DHT22;2463;49.948;8.472;2022-11-15T10:25:27;14.40;99.90
4896;DHT22;2463;49.948;8.472;2022-11-15T10:28:17;14.30;99.90
4896;DHT22;2463;49.948;8.472;2022-11-15T10:30:46;14.30;99.90
4896;DHT22;2463;49.948;8.472;2022-11-15T10:33:33;14.30;99.90
4896;DHT22;2463;49.948;8.472;2022-11-15T10:46:35;13.90;99.90
4896;DHT22;2463;49.948;8.472;2022-11-15T10:52:08;13.80;99.90
4896;DHT22;2463;49.948;8.472;2022-11-15T10:54:42;13.70;99.90
4896;DHT22;2463;49.948;8.472;2022-11-15T10:57:14;13.70;99.90
4896;DHT22;2463;49.948;8.472;2022-11-15T11:00:03;13.60;99.90
4896;DHT22;2463;49.948;8.472;2022-11-15T11:05:36;13.70;99.90
4896;DHT22;2463;49.948;8.472;2022-11-15T11:10:38;13.90;99.90
4896;DHT22;2463;49.948;8.472;2022-11-15T11:13:26;14.00;99.90
4896;DHT22;2463;49.948;8.472;2022-11-15T11:16:06;14.20;99.90
4896;DHT22;2463;49.948;8.472;2022-11-15T11:24:19;14.50;99.90
4896;DHT22;2463;49.948;8.472;2022-11-15T11:33:01;14.80;99.90
4896;DHT22;2463;49.948;8.472;2022-11-15T11:46:47;14.80;99.90
4896;DHT22;2463;49.948;8.472;2022-11-15T11:52:01;14.60;99.90
4896;DHT22;2463;49.948;8.472;2022-11-15T11:54:51;14.50;99.90
4896;DHT22;2463;49.948;8.472;2022-11-15T12:00:27;14.50;99.90
4896;DHT22;2463;49.948;8.472;2022-11-15T12:05:43;14.90;99.90
4896;DHT22;2463;49.948;8.472;2022-11-15T12:11:34;15.30;99.90
4896;DHT22;2463;49.948;8.472;2022-11-15T12:14:08;15.20;99.90
4896;DHT22;2463;49.948;8.472;2022-11-15T12:16:38;15.00;99.90
4896;DHT22;2463;49.948;8.472;2022-11-15T12:19:08;15.00;99.90
4896;DHT22;2463;49.948;8.472;2022-11-15T12:21:53;15.10;99.90
4896;DHT22;2463;49.948;8.472;2022-11-15T12:24:27;15.40;99.90
4896;DHT22;2463;49.948;8.472;2022-11-15T12:27:16;15.40;99.90
4896;DHT22;2463;49.948;8.472;2022-11-15T12:29:55;15.40;99.90
4896;DHT22;2463;49.948;8.472;2022-11-15T12:32:30;15.50;99.90
4896;DHT22;2463;49.948;8.472;2022-11-15T12:34:58;15.50;99.90
4896;DHT22;2463;49.948;8.472;2022-11-15T12:43:37;15.30;99.90
4896;DHT22;2463;49.948;8.472;2022-11-15T12:46:08;15.20;99.90
4896;DHT22;2463;49.948;8.472;2022-11-15T12:51:04;15.20;99.90
4896;DHT22;2463;49.948;8.472;2022-11-15T12:53:32;15.20;99.90
4896;DHT22;2463;49.948;8.472;2022-11-15T12:58:42;15.30;99.90
4896;DHT22;2463;49.948;8.472;2022-11-15T13:14:59;15.50;99.90
4896;DHT22;2463;49.948;8.472;2022-11-15T13:17:29;15.40;99.90
4896;DHT22;2463;49.948;8.472;2022-11-15T13:22:58;15.60;99.90
4896;DHT22;2463;49.948;8.472;2022-11-15T13:35:54;15.40;99.90
4896;DHT22;2463;49.948;8.472;2022-11-15T13:40:50;15.40;99.90
4896;DHT22;2463;49.948;8.472;2022-11-15T13:43:35;15.30;99.90
4896;DHT22;2463;49.948;8.472;2022-11-15T13:48:46;15.20;99.90
4896;DHT22;2463;49.948;8.472;2022-11-15T13:51:47;15.00;99.90
4896;DHT22;2463;49.948;8.472;2022-11-15T13:54:45;15.00;99.90
4896;DHT22;2463;49.948;8.472;2022-11-15T13:57:23;14.90;99.90
4896;DHT22;2463;49.948;8.472;2022-11-15T14:00:06;14.90;99.90
4896;DHT22;2463;49.948;8.472;2022-11-15T14:02:46;14.90;99.90
4896;DHT22;2463;49.948;8.472;2022-11-15T14:05:18;14.90;99.90
4896;DHT22;2463;49.948;8.472;2022-11-15T14:07:57;14.90;99.90
4896;DHT22;2463;49.948;8.472;2022-11-15T14:10:44;15.00;99.90
4896;DHT22;2463;49.948;8.472;2022-11-15T14:13:27;15.00;99.90
4896;DHT22;2463;49.948;8.472;2022-11-15T14:15:54;15.00;99.90
4896;DHT22;2463;49.948;8.472;2022-11-15T14:18:44;15.00;99.90
4896;DHT22;2463;49.948;8.472;2022-11-15T14:21:11;15.10;99.90
4896;DHT22;2463;49.948;8.472;2022-11-15T14:23:37;15.10;99.90
4896;DHT22;2463;49.948;8.472;2022-11-15T14:26:04;15.10;99.90
4896;DHT22;2463;49.948;8.472;2022-11-15T14:28:37;15.00;99.90
4896;DHT22;2463;49.948;8.472;2022-11-15T14:31:11;14.90;99.90
4896;DHT22;2463;49.948;8.472;2022-11-15T14:33:39;14.80;99.90
4896;DHT22;2463;49.948;8.472;2022-11-15T14:36:20;14.80;99.90
4896;DHT22;2463;49.948;8.472;2022-11-15T14:38:47;14.80;99.90
4896;DHT22;2463;49.948;8.472;2022-11-15T14:41:24;14.90;99.90
4896;DHT22;2463;49.948;8.472;2022-11-15T14:43:53;14.90;99.90
4896;DHT22;2463;49.948;8.472;2022-11-15T14:46:19;14.80;99.90
4896;DHT22;2463;49.948;8.472;2022-11-15T14:48:46;14.80;99.90
4896;DHT22;2463;49.948;8.472;2022-11-15T14:51:16;14.80;99.90
4896;DHT22;2463;49.948;8.472;2022-11-15T14:53:43;14.70;99.90
4896;DHT22;2463;49.948;8.472;2022-11-15T14:56:11;14.60;99.90
4896;DHT22;2463;49.948;8.472;2022-11-15T14:58:37;14.80;99.90
4896;DHT22;2463;49.948;8.472;2022-11-15T15:01:30;14.60;99.90
4896;DHT22;2463;49.948;8.472;2022-11-15T15:03:58;14.60;99.90
4896;DHT22;2463;49.948;8.472;2022-11-15T15:06:26;14.60;99.90
4896;DHT22;2463;49.948;8.472;2022-11-15T15:08:52;14.60;99.90
4896;DHT22;2463;49.948;8.472;2022-11-15T15:11:24;14.70;99.90
4896;DHT22;2463;49.948;8.472;2022-11-15T15:13:52;14.70;99.90
4896;DHT22;2463;49.948;8.472;2022-11-15T15:16:19;14.70;99.90
4896;DHT22;2463;49.948;8.472;2022-11-15T15:18:46;15.90;99.90
4896;DHT22;2463;49.948;8.472;2022-11-15T15:21:24;14.70;99.90
4896;DHT22;2463;49.948;8.472;2022-11-15T15:23:52;14.70;99.90
4896;DHT22;2463;49.948;8.472;2022-11-15T15:26:21;14.70;99.90
4896;DHT22;2463;49.948;8.472;2022-11-15T15:28:48;14.50;99.90
4896;DHT22;2463;49.948;8.472;2022-11-15T15:31:18;14.50;99.90
4896;DHT22;2463;49.948;8.472;2022-11-15T15:33:45;14.50;99.90
4896;DHT22;2463;49.948;8.472;2022-11-15T15:36:12;14.50;99.90
4896;DHT22;2463;49.948;8.472;2022-11-15T15:38:39;14.40;99.90
4896;DHT22;2463;49.948;8.472;2022-11-15T15:41:13;14.40;99.90
4896;DHT22;2463;49.948;8.472;2022-11-15T15:43:40;14.50;99.90
4896;DHT22;2463;49.948;8.472;2022-11-15T15:46:12;14.50;99.90
4896;DHT22;2463;49.948;8.472;2022-11-15T15:48:38;14.50;99.90
4896;DHT22;2463;49.948;8.472;2022-11-15T15:51:06;14.50;99.90
4896;DHT22;2463;49.948;8.472;2022-11-15T15:53:44;14.40;99.90
4896;DHT22;2463;49.948;8.472;2022-11-15T15:56:10;14.40;99.90
4896;DHT22;2463;49.948;8.472;2022-11-15T15:58:37;14.40;99.90
4896;DHT22;2463;49.948;8.472;2022-11-15T16:01:04;14.40;99.90
4896;DHT22;2463;49.948;8.472;2022-11-15T16:03:30;14.40;99.90
4896;DHT22;2463;49.948;8.472;2022-11-15T16:05:57;14.40;99.90
4896;DHT22;2463;49.948;8.472;2022-11-15T16:08:25;14.30;99.90
4896;DHT22;2463;49.948;8.472;2022-11-15T16:11:03;14.30;99.90
4896;DHT22;2463;49.948;8.472;2022-11-15T16:13:32;14.30;99.90
4896;DHT22;2463;49.948;8.472;2022-11-15T16:16:00;14.20;99.90
4896;DHT22;2463;49.948;8.472;2022-11-15T16:18:26;14.20;99.90
4896;DHT22;2463;49.948;8.472;2022-11-15T16:20:53;14.10;99.90
4896;DHT22;2463;49.948;8.472;2022-11-15T16:23:23;14.10;99.90
4896;DHT22;2463;49.948;8.472;2022-11-15T16:25:52;14.10;99.90
4896;DHT22;2463;49.948;8.472;2022-11-15T16:28:32;14.00;99.90
4896;DHT22;2463;49.948;8.472;2022-11-15T16:31:10;14.00;99.90
4896;DHT22;2463;49.948;8.472;2022-11-15T16:33:37;14.00;99.90
4896;DHT22;2463;49.948;8.472;2022-11-15T16:36:06;14.00;99.90
4896;DHT22;2463;49.948;8.472;2022-11-15T16:38:33;13.90;99.90
4896;DHT22;2463;49.948;8.472;2022-11-15T16:41:00;13.80;99.90
4896;DHT22;2463;49.948;8.472;2022-11-15T16:43:27;13.80;99.90
4896;DHT22;2463;49.948;8.472;2022-11-15T16:45:54;13.70;99.90
4896;DHT22;2463;49.948;8.472;2022-11-15T16:48:27;13.70;99.90
4896;DHT22;2463;49.948;8.472;2022-11-15T16:50:55;13.70;99.90
4896;DHT22;2463;49.948;8.472;2022-11-15T16:53:23;13.60;99.90
4896;DHT22;2463;49.948;8.472;2022-11-15T16:55:50;13.60;99.90
4896;DHT22;2463;49.948;8.472;2022-11-15T16:58:17;13.50;99.90
4896;DHT22;2463;49.948;8.472;2022-11-15T17:00:44;13.50;99.90
4896;DHT22;2463;49.948;8.472;2022-11-15T17:03:10;13.50;99.90
4896;DHT22;2463;49.948;8.472;2022-11-15T17:05:37;13.40;99.90
4896;DHT22;2463;49.948;8.472;2022-11-15T17:08:04;13.40;99.90
4896;DHT22;2463;49.948;8.472;2022-11-15T17:10:31;13.40;99.90
4896;DHT22;2463;49.948;8.472;2022-11-15T17:12:58;13.40;99.90
4896;DHT22;2463;49.948;8.472;2022-11-15T17:15:25;13.30;99.90
4896;DHT22;2463;49.948;8.472;2022-11-15T17:17:52;13.30;99.90
4896;DHT22;2463;49.948;8.472;2022-11-15T17:20:21;13.30;99.90
4896;DHT22;2463;49.948;8.472;2022-11-15T17:22:48;13.30;99.90
4896;DHT22;2463;49.948;8.472;2022-11-15T17:25:16;13.20;99.90
4896;DHT22;2463;49.948;8.472;2022-11-15T17:27:42;13.20;99.90
4896;DHT22;2463;49.948;8.472;2022-11-15T17:30:11;13.20;99.90
4896;DHT22;2463;49.948;8.472;2022-11-15T17:32:38;13.20;99.90
4896;DHT22;2463;49.948;8.472;2022-11-15T17:35:05;13.20;99.90
4896;DHT22;2463;49.948;8.472;2022-11-15T17:37:41;13.20;99.90
4896;DHT22;2463;49.948;8.472;2022-11-15T17:40:08;13.10;99.90
4896;DHT22;2463;49.948;8.472;2022-11-15T17:42:35;13.20;99.90
4896;DHT22;2463;49.948;8.472;2022-11-15T17:45:02;13.10;99.90
4896;DHT22;2463;49.948;8.472;2022-11-15T17:47:35;13.10;99.90
4896;DHT22;2463;49.948;8.472;2022-11-15T17:50:02;13.10;99.90
4896;DHT22;2463;49.948;8.472;2022-11-15T17:52:29;13.10;99.90
4896;DHT22;2463;49.948;8.472;2022-11-15T17:54:55;13.10;99.90
4896;DHT22;2463;49.948;8.472;2022-11-15T17:57:22;13.10;99.90
4896;DHT22;2463;49.948;8.472;2022-11-15T17:59:49;13.10;99.90
4896;DHT22;2463;49.948;8.472;2022-11-15T18:02:15;13.10;99.90
4896;DHT22;2463;49.948;8.472;2022-11-15T18:04:42;13.00;99.90
4896;DHT22;2463;49.948;8.472;2022-11-15T18:07:09;13.10;99.90
4896;DHT22;2463;49.948;8.472;2022-11-15T18:09:37;13.10;99.90
4896;DHT22;2463;49.948;8.472;2022-11-15T18:12:08;13.10;99.90
4896;DHT22;2463;49.948;8.472;2022-11-15T18:14:34;13.10;99.90
4896;DHT22;2463;49.948;8.472;2022-11-15T18:17:01;13.10;99.90
4896;DHT22;2463;49.948;8.472;2022-11-15T18:19:28;13.00;99.90
4896;DHT22;2463;49.948;8.472;2022-11-15T18:21:54;13.00;99.90
4896;DHT22;2463;49.948;8.472;2022-11-15T18:26:51;13.00;99.90
4896;DHT22;2463;49.948;8.472;2022-11-15T18:29:18;13.00;99.90